createdAt,value
2023-11-19T00:01:17.294Z,58.77
2023-11-19T00:03:45.266Z,87.80
2023-11-19T00:06:12.992Z,66.13
2023-11-19T00:08:40.736Z,107.20
2023-11-19T00:11:08.404Z,79.90
2023-11-19T00:13:37.498Z,84.67
2023-11-19T00:16:06.031Z,93.17
2023-11-19T00:18:33.966Z,88.00
2023-11-19T00:21:03.172Z,93.20
2023-11-19T00:23:30.835Z,113.77
2023-11-19T00:25:58.687Z,88.83
2023-11-19T00:28:26.438Z,67.40
2023-11-19T00:30:55.673Z,85.50
2023-11-19T00:33:23.295Z,86.20
2023-11-19T00:35:50.890Z,82.60
2023-11-19T00:38:18.572Z,74.30
2023-11-19T00:40:46.404Z,86.73
2023-11-19T00:43:14.345Z,53.67
2023-11-19T00:45:42.300Z,72.10
2023-11-19T00:48:11.896Z,81.43
2023-11-19T00:50:43.823Z,63.37
2023-11-19T00:53:11.761Z,54.60
2023-11-19T00:55:47.080Z,75.53
2023-11-19T00:58:15.201Z,29.73
2023-11-19T01:00:44.105Z,47.07
2023-11-19T01:03:13.763Z,59.73
2023-11-19T01:05:41.434Z,34.23
2023-11-19T01:08:09.205Z,32.50
2023-11-19T01:10:38.872Z,61.70
2023-11-19T01:13:06.927Z,57.30
2023-11-19T01:15:34.878Z,54.57
2023-11-19T01:18:03.132Z,49.33
2023-11-19T01:20:32.319Z,53.90
2023-11-19T01:22:59.926Z,53.17
2023-11-19T01:25:27.618Z,68.80
2023-11-19T01:27:55.288Z,61.07
2023-11-19T01:30:23.132Z,80.97
2023-11-19T01:32:50.720Z,74.03
2023-11-19T01:35:18.346Z,71.47
2023-11-19T01:37:47.262Z,39.57
2023-11-19T01:40:15.152Z,66.73
2023-11-19T01:42:43.203Z,65.90
2023-11-19T01:45:11.658Z,64.47
2023-11-19T01:47:39.874Z,66.60
2023-11-19T01:50:09.017Z,63.40
2023-11-19T01:52:37.538Z,66.90
2023-11-19T01:55:07.529Z,62.00
2023-11-19T01:57:35.423Z,70.17
2023-11-19T02:00:04.741Z,60.87
2023-11-19T02:02:32.667Z,44.30
2023-11-19T02:05:01.305Z,56.80
2023-11-19T02:07:29.346Z,64.37
2023-11-19T02:10:00.372Z,37.63
2023-11-19T02:12:30.293Z,48.63
2023-11-19T02:14:57.915Z,41.57
2023-11-19T02:17:29.296Z,55.63
2023-11-19T02:19:56.954Z,55.37
2023-11-19T02:22:24.603Z,51.03
2023-11-19T02:24:53.848Z,46.00
2023-11-19T02:27:40.695Z,30.60
2023-11-19T02:30:09.708Z,53.30
2023-11-19T02:32:41.868Z,68.57
2023-11-19T02:35:10.433Z,35.20
2023-11-19T02:37:39.053Z,55.00
2023-11-19T02:40:10.235Z,32.70
2023-11-19T02:42:38.073Z,45.23
2023-11-19T02:45:08.521Z,54.27
2023-11-19T02:47:37.028Z,51.33
2023-11-19T02:50:05.063Z,31.20
2023-11-19T02:52:36.146Z,17.17
2023-11-19T02:55:03.834Z,20.97
2023-11-19T02:57:33.623Z,23.40
2023-11-19T03:00:01.281Z,33.93
2023-11-19T03:02:34.985Z,32.03
2023-11-19T03:05:02.803Z,37.73
2023-11-19T03:07:30.463Z,50.33
2023-11-19T03:09:58.093Z,27.60
2023-11-19T03:12:25.733Z,49.00
2023-11-19T03:14:53.479Z,40.93
2023-11-19T03:17:21.018Z,13.87
2023-11-19T03:19:50.447Z,46.97
2023-11-19T03:22:18.555Z,47.80
2023-11-19T03:24:46.204Z,33.40
2023-11-19T03:27:15.443Z,37.33
2023-11-19T03:29:44.370Z,37.00
2023-11-19T03:32:13.291Z,42.63
2023-11-19T03:34:42.280Z,47.03
2023-11-19T03:37:11.286Z,33.90
2023-11-19T03:39:38.945Z,16.03
2023-11-19T03:42:06.845Z,37.17
2023-11-19T03:44:34.459Z,25.83
2023-11-19T03:47:02.107Z,25.17
2023-11-19T03:49:29.785Z,30.53
2023-11-19T03:51:57.475Z,25.47
2023-11-19T03:54:28.756Z,28.50
2023-11-19T03:56:56.402Z,24.63
2023-11-19T03:59:23.997Z,26.23
2023-11-19T04:01:52.384Z,17.63
2023-11-19T04:04:20.096Z,22.10
2023-11-19T04:06:47.719Z,12.50
2023-11-19T04:09:15.320Z,13.67
2023-11-19T04:11:44.214Z,28.30
2023-11-19T04:14:12.005Z,40.10
2023-11-19T04:16:39.704Z,39.03
2023-11-19T04:19:07.731Z,33.37
2023-11-19T04:21:35.727Z,32.00
2023-11-19T04:24:03.311Z,35.70
2023-11-19T04:26:32.258Z,29.03
2023-11-19T04:29:01.346Z,27.87
2023-11-19T04:31:32.515Z,13.97
2023-11-19T04:34:01.494Z,28.37
2023-11-19T04:36:30.668Z,19.60
2023-11-19T04:38:58.283Z,28.13
2023-11-19T04:41:26.019Z,28.50
2023-11-19T04:43:53.668Z,28.40
2023-11-19T04:46:22.817Z,30.23
2023-11-19T04:48:50.524Z,29.40
2023-11-19T04:51:18.134Z,26.77
2023-11-19T04:53:45.685Z,36.97
2023-11-19T04:56:14.516Z,33.57
2023-11-19T04:58:42.163Z,20.03
2023-11-19T05:01:16.124Z,25.30
2023-11-19T05:03:46.574Z,25.97
2023-11-19T05:06:14.262Z,31.77
2023-11-19T05:08:41.907Z,20.40
2023-11-19T05:11:13.057Z,17.33
2023-11-19T05:13:40.745Z,27.43
2023-11-19T05:16:10.914Z,26.20
2023-11-19T05:18:40.660Z,25.90
2023-11-19T05:21:11.133Z,10.60
2023-11-19T05:23:38.817Z,16.67
2023-11-19T05:26:08.761Z,17.57
2023-11-19T05:28:36.725Z,7.47
2023-11-19T05:31:04.569Z,8.50
2023-11-19T05:33:32.324Z,26.23
2023-11-19T05:35:59.977Z,30.40
2023-11-19T05:38:30.045Z,31.27
2023-11-19T05:40:58.124Z,32.50
2023-11-19T05:43:25.826Z,16.10
2023-11-19T05:45:53.475Z,30.93
2023-11-19T05:48:21.182Z,36.67
2023-11-19T05:50:50.319Z,20.80
2023-11-19T05:53:18.148Z,32.73
2023-11-19T05:55:50.839Z,31.47
2023-11-19T05:58:18.463Z,36.97
2023-11-19T06:00:46.526Z,45.00
2023-11-19T06:03:14.724Z,47.20
2023-11-19T06:05:42.512Z,38.40
2023-11-19T06:08:10.110Z,31.33
2023-11-19T06:10:37.780Z,28.67
2023-11-19T06:13:06.772Z,27.33
2023-11-19T06:15:35.265Z,24.87
2023-11-19T06:18:04.427Z,25.63
2023-11-19T06:20:43.398Z,23.00
2023-11-19T06:23:11.616Z,17.73
2023-11-19T06:25:39.510Z,24.20
2023-11-19T06:28:08.772Z,22.23
2023-11-19T06:30:37.321Z,16.57
2023-11-19T06:33:05.698Z,19.40
2023-11-19T06:35:37.324Z,20.73
2023-11-19T06:38:05.977Z,20.27
2023-11-19T06:40:33.752Z,18.07
2023-11-19T06:43:01.908Z,17.07
2023-11-19T06:45:31.146Z,7.77
2023-11-19T06:47:59.756Z,10.60
2023-11-19T06:50:27.377Z,20.93
2023-11-19T06:52:55.009Z,27.50
2023-11-19T06:55:22.631Z,6.60
2023-11-19T06:57:50.284Z,20.13
2023-11-19T07:00:19.249Z,27.43
2023-11-19T07:02:48.428Z,26.17
2023-11-19T07:05:16.182Z,13.33
2023-11-19T07:07:44.389Z,23.10
2023-11-19T07:10:12.607Z,38.20
2023-11-19T07:12:40.403Z,19.50
2023-11-19T07:15:08.885Z,17.23
2023-11-19T07:17:37.550Z,18.70
2023-11-19T07:20:08.569Z,7.00
2023-11-19T07:22:36.229Z,7.63
2023-11-19T07:25:04.203Z,3.90
2023-11-19T07:27:31.834Z,6.83
2023-11-19T07:29:59.578Z,3.33
2023-11-19T07:32:27.341Z,3.53
2023-11-19T07:34:54.972Z,3.60
2023-11-19T07:37:23.961Z,3.97
2023-11-19T07:39:51.681Z,6.13
2023-11-19T07:42:19.309Z,4.07
2023-11-19T07:44:47.204Z,4.13
2023-11-19T07:47:14.897Z,3.87
2023-11-19T07:49:45.688Z,3.73
2023-11-19T07:54:45.500Z,3.17
2023-11-19T07:57:13.320Z,2.97
2023-11-19T07:59:41.099Z,9.60
2023-11-19T08:02:08.846Z,3.80
2023-11-19T08:04:36.617Z,2.60
2023-11-19T08:07:04.509Z,3.37
2023-11-19T08:09:32.938Z,2.13
2023-11-19T08:12:01.989Z,4.13
2023-11-19T08:14:29.705Z,6.67
2023-11-19T08:16:58.096Z,6.47
2023-11-19T08:19:25.836Z,1.87
2023-11-19T08:21:53.796Z,2.30
2023-11-19T08:24:21.692Z,2.00
2023-11-19T08:27:02.894Z,2.50
2023-11-19T08:29:32.567Z,1.90
2023-11-19T08:32:03.595Z,1.70
2023-11-19T08:34:31.659Z,3.80
2023-11-19T08:36:59.454Z,1.80
2023-11-19T08:39:27.226Z,1.70
2023-11-19T08:41:56.730Z,1.70
2023-11-19T08:44:24.398Z,2.57
2023-11-19T08:46:53.892Z,2.40
2023-11-19T08:49:21.670Z,2.97
2023-11-19T08:51:49.645Z,5.63
2023-11-19T08:54:17.537Z,2.17
2023-11-19T08:56:45.402Z,11.23
2023-11-19T08:59:13.470Z,16.73
2023-11-19T09:01:42.304Z,3.57
2023-11-19T09:04:12.032Z,3.70
2023-11-19T09:06:39.802Z,1.97
2023-11-19T09:09:07.492Z,1.57
2023-11-19T09:11:35.324Z,5.80
2023-11-19T09:14:03.506Z,2.80
2023-11-19T09:16:31.616Z,1.80
2023-11-19T09:19:00.409Z,2.83
2023-11-19T09:21:30.621Z,1.93
2023-11-19T09:23:58.336Z,2.20
2023-11-19T09:26:26.213Z,2.20
2023-11-19T09:28:54.006Z,3.30
2023-11-19T09:31:21.804Z,2.10
2023-11-19T09:33:49.523Z,3.10
2023-11-19T09:36:17.905Z,2.63
2023-11-19T09:38:47.251Z,1.80
2023-11-19T09:41:15.441Z,2.43
2023-11-19T09:43:43.605Z,2.80
2023-11-19T09:46:12.661Z,6.23
2023-11-19T09:48:41.201Z,3.03
2023-11-19T09:51:09.632Z,4.27
2023-11-19T09:53:37.553Z,6.23
2023-11-19T09:56:08.985Z,2.50
2023-11-19T09:58:37.154Z,2.30
2023-11-19T10:03:41.042Z,2.40
2023-11-19T10:06:09.567Z,2.47
2023-11-19T10:08:39.981Z,2.40
2023-11-19T10:11:09.402Z,2.57
2023-11-19T10:13:38.958Z,2.93
2023-11-19T10:16:10.505Z,2.33
2023-11-19T10:18:40.970Z,3.23
2023-11-19T10:21:09.065Z,2.80
2023-11-19T10:23:51.187Z,2.70
2023-11-19T10:26:20.978Z,2.50
2023-11-19T10:28:49.551Z,2.77
2023-11-19T10:31:18.030Z,2.50
2023-11-19T10:33:46.571Z,2.50
2023-11-19T10:36:14.731Z,2.67
2023-11-19T10:38:42.132Z,2.43
2023-11-19T10:41:09.876Z,2.90
2023-11-19T10:43:48.611Z,2.57
2023-11-19T10:46:22.095Z,2.77
2023-11-19T10:48:50.187Z,3.33
2023-11-19T10:51:22.703Z,2.80
2023-11-19T10:53:52.150Z,2.40
2023-11-19T10:56:22.836Z,3.13
2023-11-19T10:58:53.830Z,2.97
2023-11-19T11:01:22.910Z,2.67
2023-11-19T11:03:54.516Z,2.80
2023-11-19T11:06:23.447Z,3.10
2023-11-19T11:08:51.156Z,2.90
2023-11-19T11:11:22.103Z,2.70
2023-11-19T11:13:52.273Z,2.47
2023-11-19T11:16:21.144Z,2.50
2023-11-19T11:18:51.039Z,2.90
2023-11-19T11:21:21.701Z,2.80
2023-11-19T11:24:08.442Z,3.17
2023-11-19T11:26:50.297Z,3.20
2023-11-19T11:29:26.639Z,2.60
2023-11-19T11:32:04.108Z,2.43
2023-11-19T11:34:56.329Z,2.60
2023-11-19T11:37:28.502Z,3.43
2023-11-19T11:39:56.395Z,2.20
2023-11-19T11:42:37.145Z,2.60
2023-11-19T11:45:09.966Z,2.53
2023-11-19T11:48:15.482Z,3.30
2023-11-19T11:50:50.205Z,3.03
2023-11-19T11:53:19.809Z,2.40
2023-11-19T11:55:59.874Z,2.33
2023-11-19T11:58:28.706Z,2.70
2023-11-19T12:00:59.721Z,2.83
2023-11-19T12:03:29.553Z,3.10
2023-11-19T12:05:57.244Z,2.87
2023-11-19T12:08:28.188Z,2.60
2023-11-19T12:10:58.994Z,2.83
2023-11-19T12:13:28.591Z,2.50
2023-11-19T12:16:13.782Z,2.70
2023-11-19T12:18:43.335Z,3.07
2023-11-19T12:21:14.180Z,2.37
2023-11-19T12:23:49.317Z,2.77
2023-11-19T12:26:36.173Z,2.70
2023-11-19T12:29:08.920Z,2.37
2023-11-19T12:31:39.421Z,2.97
2023-11-19T12:34:09.138Z,2.57
2023-11-19T12:36:37.004Z,2.50
2023-11-19T12:39:06.812Z,2.37
2023-11-19T12:41:36.099Z,2.63
2023-11-19T12:44:13.719Z,2.53
2023-11-19T12:46:42.899Z,2.47
2023-11-19T12:49:13.530Z,2.67
2023-11-19T12:51:41.180Z,2.40
2023-11-19T12:54:08.956Z,2.57
2023-11-19T12:56:37.636Z,2.50
2023-11-19T12:59:14.626Z,2.03
2023-11-19T13:01:46.584Z,2.93
2023-11-19T13:04:20.734Z,2.20
2023-11-19T13:07:05.055Z,2.80
2023-11-19T13:09:33.689Z,2.50
2023-11-19T13:12:04.734Z,2.73
2023-11-19T13:14:38.626Z,2.70
2023-11-19T13:17:08.117Z,2.33
2023-11-19T13:19:35.859Z,2.37
2023-11-19T13:22:03.799Z,2.67
2023-11-19T13:24:31.644Z,2.80
2023-11-19T13:26:59.588Z,2.27
2023-11-19T13:29:28.882Z,2.50
2023-11-19T13:31:58.018Z,2.77
2023-11-19T13:34:26.972Z,3.07
2023-11-19T13:36:54.572Z,3.23
2023-11-19T13:39:24.797Z,2.83
2023-11-19T13:41:52.369Z,2.50
2023-11-19T13:44:21.804Z,2.83
2023-11-19T13:46:49.420Z,2.70
2023-11-19T13:49:17.239Z,2.70
2023-11-19T13:51:46.653Z,2.40
2023-11-19T13:54:15.506Z,2.40
2023-11-19T13:56:45.651Z,2.57
2023-11-19T13:59:13.331Z,2.67
2023-11-19T14:01:40.935Z,3.10
2023-11-19T14:04:10.217Z,2.67
2023-11-19T14:06:37.925Z,2.73
2023-11-19T14:09:09.037Z,2.60
2023-11-19T14:11:36.666Z,2.50
2023-11-19T14:14:04.501Z,2.27
2023-11-19T14:16:33.481Z,3.20
2023-11-19T14:19:01.192Z,2.40
2023-11-19T14:21:28.843Z,2.10
2023-11-19T14:23:56.934Z,2.60
2023-11-19T14:26:25.826Z,2.53
2023-11-19T14:28:56.448Z,3.60
2023-11-19T14:31:24.267Z,2.40
2023-11-19T14:33:51.861Z,3.03
2023-11-19T14:36:19.923Z,2.97
2023-11-19T14:38:47.430Z,3.05
2023-11-19T14:41:15.078Z,2.67
2023-11-19T14:43:43.991Z,2.57
2023-11-19T14:46:11.631Z,2.70
2023-11-19T14:48:39.238Z,3.07
2023-11-19T14:51:08.037Z,2.60
2023-11-19T14:53:35.628Z,2.67
2023-11-19T14:56:03.450Z,2.60
2023-11-19T14:58:31.111Z,2.93
2023-11-19T15:01:00.214Z,3.00
2023-11-19T15:03:28.093Z,2.80
2023-11-19T15:05:55.799Z,2.50
2023-11-19T15:08:23.364Z,2.53
2023-11-19T15:10:51.166Z,2.73
2023-11-19T15:13:18.754Z,3.27
2023-11-19T15:15:46.458Z,2.93
2023-11-19T15:18:15.478Z,2.90
2023-11-19T15:20:43.091Z,2.83
2023-11-19T15:23:11.027Z,3.53
2023-11-19T15:25:38.815Z,2.63
2023-11-19T15:28:06.440Z,2.43
2023-11-19T15:30:34.048Z,2.17
2023-11-19T15:33:01.664Z,2.80
2023-11-19T15:35:30.605Z,3.23
2023-11-19T15:37:58.228Z,2.70
2023-11-19T15:40:25.920Z,3.10
2023-11-19T15:42:55.899Z,3.37
2023-11-19T15:45:23.510Z,2.77
2023-11-19T15:47:51.533Z,3.23
2023-11-19T15:50:19.158Z,2.63
2023-11-19T15:52:48.960Z,3.30
2023-11-19T15:55:17.046Z,2.77
2023-11-19T15:57:44.677Z,2.73
2023-11-19T16:00:12.985Z,3.20
2023-11-19T16:02:40.851Z,2.60
2023-11-19T16:05:12.032Z,2.30
2023-11-19T16:07:41.475Z,3.70
2023-11-19T16:10:14.230Z,4.17
2023-11-19T16:12:42.418Z,4.80
2023-11-19T16:15:11.013Z,4.70
2023-11-19T16:17:41.014Z,10.50
2023-11-19T16:20:12.791Z,4.60
2023-11-19T16:22:40.490Z,6.17
2023-11-19T16:25:10.529Z,6.90
2023-11-19T16:27:40.549Z,3.67
2023-11-19T16:30:09.294Z,3.00
2023-11-19T16:32:49.900Z,3.37
2023-11-19T16:35:17.634Z,4.57
2023-11-19T16:37:45.979Z,6.73
2023-11-19T16:40:15.566Z,4.07
2023-11-19T16:42:43.568Z,2.73
2023-11-19T16:45:11.427Z,4.60
2023-11-19T16:47:39.169Z,2.60
2023-11-19T16:50:08.908Z,2.87
2023-11-19T16:52:36.510Z,2.37
2023-11-19T16:55:07.290Z,2.90
2023-11-19T16:57:36.865Z,3.03
2023-11-19T17:00:05.432Z,3.30
2023-11-19T17:02:50.969Z,3.13
2023-11-19T17:05:19.343Z,7.87
2023-11-19T17:07:49.239Z,3.00
2023-11-19T17:10:17.519Z,3.90
2023-11-19T17:12:46.436Z,4.30
2023-11-19T17:15:14.236Z,2.67
2023-11-19T17:17:41.859Z,3.70
2023-11-19T17:20:10.914Z,3.17
2023-11-19T17:22:41.544Z,2.90
2023-11-19T17:25:10.819Z,3.23
2023-11-19T17:27:40.152Z,2.60
2023-11-19T17:30:12.140Z,5.63
2023-11-19T17:32:39.762Z,3.70
2023-11-19T17:35:08.199Z,3.23
2023-11-19T17:37:35.842Z,3.03
2023-11-19T17:40:03.487Z,2.47
2023-11-19T17:42:31.191Z,3.53
2023-11-19T17:44:59.783Z,3.37
2023-11-19T17:47:29.489Z,2.80
2023-11-19T17:49:57.103Z,4.40
2023-11-19T17:52:25.092Z,3.40
2023-11-19T17:54:52.729Z,3.03
2023-11-19T17:57:20.333Z,3.33
2023-11-19T17:59:50.683Z,4.00
2023-11-19T18:02:19.634Z,2.90
2023-11-19T18:04:49.247Z,3.13
2023-11-19T18:07:17.792Z,3.37
2023-11-19T18:09:46.086Z,3.40
2023-11-19T18:12:16.649Z,2.80
2023-11-19T18:17:15.248Z,3.37
2023-11-19T18:19:42.843Z,3.47
2023-11-19T18:22:12.010Z,3.43
2023-11-19T18:24:39.750Z,3.90
2023-11-19T18:27:08.571Z,2.83
2023-11-19T18:29:36.487Z,3.23
2023-11-19T18:32:05.315Z,3.10
2023-11-19T18:34:32.952Z,3.50
2023-11-19T18:37:00.991Z,3.77
2023-11-19T18:39:29.901Z,3.57
2023-11-19T18:41:57.610Z,3.93
2023-11-19T18:44:25.259Z,3.57
2023-11-19T18:46:52.865Z,4.00
2023-11-19T18:49:20.492Z,4.83
2023-11-19T18:51:48.095Z,3.03
2023-11-19T18:54:17.401Z,3.00
2023-11-19T18:56:46.384Z,3.40
2023-11-19T18:59:14.752Z,4.10
2023-11-19T19:01:44.702Z,3.90
2023-11-19T19:04:12.546Z,3.47
2023-11-19T19:06:42.009Z,3.13
2023-11-19T19:09:09.636Z,2.93
2023-11-19T19:11:37.307Z,3.53
2023-11-19T19:14:08.404Z,3.53
2023-11-19T19:16:38.094Z,3.30
2023-11-19T19:19:05.932Z,3.30
2023-11-19T19:21:33.509Z,3.37
2023-11-19T19:24:04.262Z,3.43
2023-11-19T19:26:32.067Z,3.87
2023-11-19T19:28:59.725Z,3.83
2023-11-19T19:31:29.355Z,3.13
2023-11-19T19:33:59.015Z,3.23
2023-11-19T19:36:29.011Z,3.20
2023-11-19T19:38:56.793Z,3.80
2023-11-19T19:41:25.601Z,3.37
2023-11-19T19:43:53.319Z,3.57
2023-11-19T19:46:20.953Z,3.43
2023-11-19T19:48:51.881Z,3.17
2023-11-19T19:51:21.130Z,3.37
2023-11-19T19:53:49.031Z,3.80
2023-11-19T19:56:17.141Z,3.50
2023-11-19T19:58:44.936Z,3.23
2023-11-19T20:01:12.538Z,3.33
2023-11-19T20:03:40.309Z,3.63
2023-11-19T20:06:12.486Z,3.77
2023-11-19T20:08:40.780Z,3.37
2023-11-19T20:11:09.778Z,2.97
2023-11-19T20:13:38.027Z,4.00
2023-11-19T20:16:06.598Z,3.83
2023-11-19T20:18:34.849Z,3.53
2023-11-19T20:21:04.902Z,3.87
2023-11-19T20:23:33.914Z,3.33
2023-11-19T20:26:01.605Z,3.37
2023-11-19T20:28:29.156Z,3.77
2023-11-19T20:30:56.763Z,3.70
2023-11-19T20:33:24.373Z,3.83
2023-11-19T20:35:52.599Z,3.60
2023-11-19T20:38:20.584Z,3.73
2023-11-19T20:40:50.720Z,3.50
2023-11-19T20:43:18.357Z,3.60
2023-11-19T20:45:46.003Z,3.00
2023-11-19T20:48:13.831Z,3.40
2023-11-19T20:50:41.989Z,3.40
2023-11-19T20:53:09.788Z,3.50
2023-11-19T20:55:39.441Z,3.27
2023-11-19T20:58:10.624Z,3.83
2023-11-19T21:00:40.095Z,3.77
2023-11-19T21:03:10.897Z,3.03
2023-11-19T21:05:40.086Z,3.57
2023-11-19T21:08:07.761Z,3.40
2023-11-19T21:10:35.366Z,4.50
2023-11-19T21:13:03.054Z,3.30
2023-11-19T21:15:32.099Z,3.27
2023-11-19T21:18:01.880Z,3.30
2023-11-19T21:20:29.499Z,4.47
2023-11-19T21:22:57.098Z,3.20
2023-11-19T21:25:24.800Z,3.47
2023-11-19T21:27:52.487Z,3.10
2023-11-19T21:30:20.052Z,3.33
2023-11-19T21:32:49.002Z,3.40
2023-11-19T21:35:16.725Z,3.80
2023-11-19T21:37:44.288Z,3.30
2023-11-19T21:40:12.673Z,3.40
2023-11-19T21:42:40.259Z,3.40
2023-11-19T21:45:09.508Z,2.93
2023-11-19T21:47:37.153Z,2.93
2023-11-19T21:50:08.227Z,3.33
2023-11-19T21:52:36.372Z,3.50
2023-11-19T21:55:04.314Z,4.07
2023-11-19T21:57:31.921Z,4.00
2023-11-19T21:59:59.532Z,3.37
2023-11-19T22:02:27.192Z,3.47
2023-11-19T22:04:54.838Z,3.10
2023-11-19T22:07:24.498Z,3.33
2023-11-19T22:09:52.767Z,4.53
2023-11-19T22:12:21.712Z,3.30
2023-11-19T22:14:49.291Z,3.60
2023-11-19T22:17:17.263Z,2.83
2023-11-19T22:19:47.187Z,3.27
2023-11-19T22:22:17.701Z,3.27
2023-11-19T22:24:46.667Z,2.83
2023-11-19T22:27:14.292Z,2.97
2023-11-19T22:29:41.869Z,3.33
2023-11-19T22:32:09.467Z,3.63
2023-11-19T22:34:37.083Z,3.70
2023-11-19T22:37:04.982Z,2.87
2023-11-19T22:39:32.557Z,3.23
2023-11-19T22:42:01.520Z,3.50
2023-11-19T22:44:29.327Z,3.13
2023-11-19T22:46:57.053Z,3.40
2023-11-19T22:49:24.667Z,3.27
2023-11-19T22:51:52.269Z,3.13
2023-11-19T22:54:19.941Z,2.80
2023-11-19T22:56:47.516Z,2.57
2023-11-19T22:59:17.056Z,2.80
2023-11-19T23:01:46.111Z,3.60
2023-11-19T23:04:14.513Z,2.60
2023-11-19T23:06:42.523Z,3.10
2023-11-19T23:09:14.406Z,3.07
2023-11-19T23:12:08.727Z,2.70
2023-11-19T23:14:38.276Z,3.07
2023-11-19T23:17:20.231Z,3.40
2023-11-19T23:19:49.099Z,2.60
2023-11-19T23:24:48.975Z,2.50
2023-11-19T23:27:19.413Z,3.10
2023-11-19T23:29:48.360Z,3.10
2023-11-19T23:32:16.385Z,3.40
2023-11-19T23:34:44.600Z,3.17
2023-11-19T23:37:23.052Z,0.40
2023-11-19T23:39:51.049Z,0.50
2023-11-19T23:42:25.470Z,0.50
2023-11-19T23:44:54.836Z,0.70
2023-11-19T23:47:22.906Z,3.23
2023-11-19T23:49:50.724Z,6.00
2023-11-19T23:52:18.985Z,3.50
2023-11-19T23:54:47.106Z,2.50
2023-11-19T23:57:15.886Z,3.17
2023-11-19T23:59:48.368Z,3.00
